Time;durP1;ratioP1;P1;durP2;ratioP2;P2;SDS_P1;SDS_P2;PMS_P1;PMS_P2;Temp;Humidity;BMP_temperature;BMP_pressure;BME280_temperature;BME280_humidity;BME280_pressure;Samples;Min_cycle;Max_cycle;Signal;HPM_P1;HPM_P2
2022/10/04 00:01:57;;;;;;;2.25;2.05;;;17.40;64.80;;;;;;5051849;28;20183;-69
2022/10/04 00:04:40;;;;;;;2.40;1.55;;;17.40;64.80;;;;;;5051697;28;20197;-69
2022/10/04 00:07:07;;;;;;;1.42;1.30;;;17.40;64.80;;;;;;5050753;28;20553;-68
2022/10/04 00:09:42;;;;;;;2.15;1.27;;;17.40;64.80;;;;;;5051957;28;20179;-68
2022/10/04 00:12:19;;;;;;;2.05;1.73;;;17.40;64.80;;;;;;5050972;28;20296;-69
2022/10/04 00:14:44;;;;;;;1.77;1.35;;;17.40;64.80;;;;;;5035698;28;20270;-69
2022/10/04 00:17:11;;;;;;;2.20;1.52;;;17.40;64.90;;;;;;5050392;28;20275;-69
2022/10/04 00:19:47;;;;;;;2.72;1.80;;;17.40;64.80;;;;;;5034831;28;20285;-69
2022/10/04 00:22:16;;;;;;;3.00;1.50;;;17.40;64.80;;;;;;5055874;28;20210;-70
2022/10/04 00:25:00;;;;;;;2.42;1.50;;;17.40;64.80;;;;;;5055720;28;20167;-68
2022/10/04 00:27:26;;;;;;;1.70;1.40;;;17.40;64.80;;;;;;5056180;28;20216;-68
2022/10/04 00:30:01;;;;;;;2.20;1.50;;;17.40;64.90;;;;;;5038041;28;20258;-68
2022/10/04 00:32:42;;;;;;;2.08;1.60;;;17.40;64.80;;;;;;5056452;28;20167;-68
2022/10/04 00:35:25;;;;;;;1.50;1.40;;;17.40;64.80;;;;;;5056008;28;20217;-68
2022/10/04 00:38:01;;;;;;;1.80;1.33;;;17.40;64.90;;;;;;5055645;28;20175;-69
2022/10/04 00:40:49;;;;;;;1.30;1.20;;;17.40;64.80;;;;;;5054915;28;20183;-70
2022/10/04 00:43:39;;;;;;;1.23;1.10;;;17.40;64.80;;;;;;5054933;28;20179;-69
2022/10/04 00:46:19;;;;;;;2.35;1.42;;;17.40;64.80;;;;;;5055822;28;20215;-68
2022/10/04 00:48:52;;;;;;;1.88;1.20;;;17.40;64.90;;;;;;5040147;28;20629;-68
2022/10/04 00:51:47;;;;;;;2.42;1.50;;;17.40;64.90;;;;;;5037853;28;20208;-69
2022/10/04 00:54:40;;;;;;;1.50;1.40;;;17.40;64.90;;;;;;5055547;28;20189;-68
2022/10/04 00:57:20;;;;;;;1.42;1.33;;;17.30;64.80;;;;;;5053106;28;20185;-69
2022/10/04 00:59:49;;;;;;;1.40;1.20;;;17.40;64.90;;;;;;5055232;28;20274;-69
2022/10/04 01:02:22;;;;;;;1.90;1.35;;;17.30;64.90;;;;;;5054522;28;20186;-70
2022/10/04 01:05:12;;;;;;;3.30;1.40;;;17.30;64.90;;;;;;5054906;28;20569;-69
2022/10/04 01:07:45;;;;;;;2.30;1.50;;;17.40;64.90;;;;;;5055173;28;20268;-68
2022/10/04 01:10:20;;;;;;;1.85;1.38;;;17.30;64.80;;;;;;5038277;28;20341;-68
2022/10/04 01:13:02;;;;;;;1.63;1.50;;;17.30;64.90;;;;;;5053430;28;20226;-69
2022/10/04 01:15:27;;;;;;;2.28;1.40;;;17.30;64.90;;;;;;5055729;28;20187;-69
2022/10/04 01:18:26;;;;;;;3.92;1.85;;;17.30;64.90;;;;;;5055647;28;20648;-69
2022/10/04 01:20:59;;;;;;;1.33;1.23;;;17.30;64.90;;;;;;5053689;28;20186;-69
2022/10/04 01:23:30;;;;;;;1.98;1.27;;;17.30;64.90;;;;;;5054265;28;20180;-68
2022/10/04 01:25:55;;;;;;;1.73;1.30;;;17.30;64.90;;;;;;5054456;28;20668;-68
2022/10/04 01:28:21;;;;;;;1.67;1.40;;;17.30;64.90;;;;;;5054979;28;20183;-69
2022/10/04 01:30:46;;;;;;;1.50;1.40;;;17.30;64.90;;;;;;5055353;28;20175;-68
2022/10/04 01:33:12;;;;;;;2.33;1.30;;;17.30;64.90;;;;;;5053964;28;20218;-68
2022/10/04 01:35:38;;;;;;;1.98;1.30;;;17.30;64.90;;;;;;5055092;28;20175;-68
2022/10/04 01:38:06;;;;;;;1.70;1.27;;;17.30;64.90;;;;;;5036894;28;20163;-69
2022/10/04 01:40:32;;;;;;;1.52;1.42;;;17.30;64.90;;;;;;5053076;28;20194;-68
2022/10/04 01:43:01;;;;;;;4.60;1.75;;;17.30;64.90;;;;;;5037257;28;20163;-69
2022/10/04 01:45:37;;;;;;;1.70;1.38;;;17.30;64.90;;;;;;5053739;28;20207;-68
2022/10/04 01:48:04;;;;;;;2.15;1.50;;;17.30;64.90;;;;;;5036483;28;20264;-69
2022/10/04 01:50:50;;;;;;;3.90;1.67;;;17.30;65.00;;;;;;5054266;28;20385;-68
2022/10/04 01:53:30;;;;;;;1.60;1.40;;;17.30;65.80;;;;;;5038300;28;20175;-68
2022/10/04 01:56:12;;;;;;;1.92;1.35;;;17.30;64.90;;;;;;5053017;28;20179;-68
2022/10/04 01:58:41;;;;;;;2.03;1.42;;;17.30;65.80;;;;;;5053717;28;20182;-69
2022/10/04 02:01:22;;;;;;;1.48;1.38;;;17.30;64.90;;;;;;5052377;28;20657;-69
2022/10/04 02:03:58;;;;;;;2.05;1.50;;;17.30;64.90;;;;;;5038923;28;20512;-68
2022/10/04 02:06:24;;;;;;;1.65;1.55;;;17.30;64.90;;;;;;5053435;28;20234;-69
2022/10/04 02:08:50;;;;;;;1.70;1.10;;;17.30;65.00;;;;;;5052710;28;20607;-68
2022/10/04 02:11:20;;;;;;;1.35;1.25;;;17.30;65.00;;;;;;5052875;28;20179;-68
2022/10/04 02:13:47;;;;;;;1.50;1.40;;;17.20;65.00;;;;;;5036705;28;20588;-68
2022/10/04 02:16:13;;;;;;;2.10;1.58;;;17.30;65.00;;;;;;5035943;28;20266;-69
2022/10/04 02:18:38;;;;;;;3.40;1.50;;;17.20;65.00;;;;;;5054361;28;20608;-69
2022/10/04 02:21:05;;;;;;;1.17;1.13;;;17.20;65.00;;;;;;5052640;28;20626;-69
2022/10/04 02:23:31;;;;;;;1.60;1.42;;;17.20;64.90;;;;;;5052401;28;20171;-68
2022/10/04 02:25:57;;;;;;;1.50;1.40;;;17.20;65.00;;;;;;5036106;28;20680;-68
2022/10/04 02:28:23;;;;;;;1.67;1.52;;;17.20;65.00;;;;;;5054527;28;20183;-68
2022/10/04 02:33:41;;;;;;;1.10;1.00;;;17.20;65.00;;;;;;5054282;28;20182;-68
2022/10/04 02:36:08;;;;;;;1.58;1.48;;;17.20;65.00;;;;;;5035687;28;20649;-68
2022/10/04 02:38:35;;;;;;;2.38;1.50;;;17.20;65.00;;;;;;5036480;28;20187;-69
2022/10/04 02:41:19;;;;;;;1.77;1.35;;;17.20;65.00;;;;;;5052594;28;20175;-69
2022/10/04 02:43:53;;;;;;;1.27;1.17;;;17.20;65.00;;;;;;5051285;28;20572;-68
2022/10/04 02:46:26;;;;;;;2.15;1.60;;;17.20;65.00;;;;;;5052266;28;20211;-68
2022/10/04 02:48:55;;;;;;;1.50;1.40;;;17.20;65.00;;;;;;5053690;28;21334;-68
2022/10/04 02:51:35;;;;;;;1.88;1.38;;;17.20;65.10;;;;;;5051634;28;20312;-68
2022/10/04 02:54:36;;;;;;;1.98;1.40;;;17.20;65.10;;;;;;5053395;28;20252;-68
2022/10/04 02:57:02;;;;;;;1.65;1.55;;;17.20;65.10;;;;;;5041133;28;20185;-69
2022/10/04 02:59:27;;;;;;;2.47;1.40;;;17.20;65.00;;;;;;5052733;28;20171;-69
2022/10/04 03:01:55;;;;;;;1.35;1.20;;;17.20;65.10;;;;;;5035822;28;20175;-68
2022/10/04 03:04:23;;;;;;;1.40;1.30;;;17.20;65.10;;;;;;5052658;28;20179;-69
2022/10/04 03:06:48;;;;;;;1.55;1.30;;;17.20;65.10;;;;;;5052202;28;20240;-68
2022/10/04 03:09:14;;;;;;;1.67;1.30;;;17.20;65.10;;;;;;5052063;28;20171;-68
2022/10/04 03:11:40;;;;;;;3.65;1.65;;;17.20;65.10;;;;;;5052701;28;20175;-68
2022/10/04 03:14:09;;;;;;;1.88;1.30;;;17.20;65.10;;;;;;5050954;28;20673;-69
2022/10/04 03:16:38;;;;;;;2.28;1.20;;;17.20;65.10;;;;;;5051348;28;20179;-69
2022/10/04 03:19:04;;;;;;;2.15;1.52;;;17.20;65.10;;;;;;5033934;28;20174;-69
2022/10/04 03:21:29;;;;;;;1.85;1.50;;;17.20;65.90;;;;;;5052409;28;20178;-68
2022/10/04 03:23:55;;;;;;;1.42;1.33;;;17.20;65.10;;;;;;5034771;28;20198;-68
2022/10/04 03:26:35;;;;;;;1.88;1.27;;;17.20;65.10;;;;;;5033773;28;20203;-68
2022/10/04 03:29:01;;;;;;;1.50;1.40;;;17.20;65.20;;;;;;5035749;28;20186;-68
2022/10/04 03:31:27;;;;;;;1.77;1.40;;;17.10;65.10;;;;;;5051184;28;20182;-68
2022/10/04 03:33:56;;;;;;;1.38;1.20;;;17.10;65.10;;;;;;5050412;28;20179;-68
2022/10/04 03:36:22;;;;;;;1.55;1.42;;;17.10;65.10;;;;;;5050929;28;20178;-68
2022/10/04 03:38:47;;;;;;;1.50;1.40;;;17.10;65.10;;;;;;5050973;28;20253;-69
2022/10/04 03:41:13;;;;;;;1.58;1.45;;;17.10;65.10;;;;;;5050162;28;20203;-69
2022/10/04 03:43:43;;;;;;;1.70;1.45;;;17.10;65.10;;;;;;5051153;28;20179;-69
2022/10/04 03:46:08;;;;;;;1.88;1.65;;;17.10;65.20;;;;;;5050716;28;20210;-69
2022/10/04 03:48:38;;;;;;;2.17;1.23;;;17.10;65.20;;;;;;5050205;28;20300;-69
2022/10/04 03:51:05;;;;;;;1.30;1.20;;;17.10;65.20;;;;;;5051594;28;20210;-69
2022/10/04 03:53:38;;;;;;;1.85;1.58;;;17.10;65.20;;;;;;5051179;28;20179;-68
2022/10/04 03:56:10;;;;;;;1.80;1.23;;;17.10;65.20;;;;;;5033172;28;20178;-68
2022/10/04 03:58:35;;;;;;;1.27;1.17;;;17.10;65.20;;;;;;5050933;28;20210;-69
2022/10/04 04:01:08;;;;;;;2.85;1.58;;;17.10;65.20;;;;;;5049876;28;20170;-69
2022/10/04 04:03:55;;;;;;;1.80;1.30;;;17.10;65.20;;;;;;5034826;28;20211;-69
2022/10/04 04:06:21;;;;;;;1.65;1.45;;;17.10;65.20;;;;;;5051509;28;20684;-69
2022/10/04 04:08:48;;;;;;;1.40;1.30;;;17.10;65.20;;;;;;5050092;28;20175;-69
2022/10/04 04:11:23;;;;;;;1.70;1.50;;;17.10;65.20;;;;;;5034003;28;20183;-69
2022/10/04 04:14:06;;;;;;;1.25;1.15;;;17.10;65.20;;;;;;4999868;28;1028167;-69
2022/10/04 04:16:31;;;;;;;1.45;1.10;;;17.10;65.20;;;;;;5035279;28;20712;-69
2022/10/04 04:19:01;;;;;;;0.98;0.88;;;17.10;65.20;;;;;;5034590;28;20266;-69
2022/10/04 04:21:27;;;;;;;1.65;1.50;;;17.10;65.30;;;;;;5051343;28;20668;-69
2022/10/04 04:24:03;;;;;;;1.52;1.38;;;17.10;65.20;;;;;;5051765;28;20262;-69
2022/10/04 04:26:41;;;;;;;1.98;1.27;;;17.10;65.30;;;;;;5035414;28;20210;-70
2022/10/04 04:29:10;;;;;;;1.40;1.13;;;17.00;65.20;;;;;;5033866;28;20182;-69
2022/10/04 04:31:41;;;;;;;1.42;1.25;;;17.00;65.20;;;;;;5052096;28;20175;-67
2022/10/04 04:34:21;;;;;;;1.67;1.50;;;17.00;65.20;;;;;;5051855;28;20177;-67
2022/10/04 04:36:46;;;;;;;1.67;1.58;;;17.10;65.30;;;;;;5051595;28;20324;-68
2022/10/04 04:41:58;;;;;;;1.88;1.48;;;17.00;65.20;;;;;;5052126;28;20186;-70
2022/10/04 04:44:23;;;;;;;4.13;1.45;;;17.00;65.20;;;;;;5034078;28;20179;-71
2022/10/04 04:46:49;;;;;;;1.45;1.35;;;17.00;65.20;;;;;;5051028;28;20289;-68
2022/10/04 04:49:15;;;;;;;1.65;1.23;;;17.00;65.20;;;;;;5051031;28;20175;-67
2022/10/04 04:51:41;;;;;;;2.22;1.42;;;17.00;65.20;;;;;;5050362;28;20649;-67
2022/10/04 04:54:06;;;;;;;1.38;1.17;;;17.00;65.20;;;;;;5034162;28;20176;-69
2022/10/04 04:56:32;;;;;;;2.33;1.17;;;17.00;65.20;;;;;;5051277;28;20297;-67
2022/10/04 04:58:58;;;;;;;1.80;1.70;;;17.00;65.20;;;;;;5033537;28;20269;-68
2022/10/04 05:01:27;;;;;;;2.33;1.25;;;17.00;65.20;;;;;;5034759;28;20258;-68
2022/10/04 05:04:05;;;;;;;1.70;1.42;;;17.00;65.20;;;;;;5051268;28;20175;-68
2022/10/04 05:06:32;;;;;;;2.42;1.30;;;17.00;65.30;;;;;;5052689;28;20206;-67
2022/10/04 05:08:58;;;;;;;2.60;1.73;;;17.00;65.30;;;;;;5055354;28;20183;-67
2022/10/04 05:11:35;;;;;;;1.38;1.27;;;17.00;65.30;;;;;;5054924;28;20189;-69
2022/10/04 05:14:07;;;;;;;1.75;1.58;;;17.00;65.30;;;;;;5055076;28;20226;-68
2022/10/04 05:16:49;;;;;;;1.85;1.65;;;17.00;65.20;;;;;;5054159;28;20187;-69
2022/10/04 05:19:34;;;;;;;1.65;1.40;;;17.00;65.20;;;;;;5054725;28;20193;-68
2022/10/04 05:22:01;;;;;;;1.23;1.20;;;17.00;65.30;;;;;;5054082;28;20179;-67
2022/10/04 05:24:30;;;;;;;3.30;1.70;;;17.00;65.20;;;;;;5054284;28;20207;-68
2022/10/04 05:27:01;;;;;;;1.92;1.38;;;17.00;65.40;;;;;;5054300;28;20215;-67
2022/10/04 05:29:30;;;;;;;2.13;1.30;;;16.90;65.20;;;;;;5055522;28;20257;-67
2022/10/04 05:32:33;;;;;;;1.70;1.40;;;16.90;65.20;;;;;;5053490;28;20258;-67
2022/10/04 05:34:59;;;;;;;1.85;1.17;;;16.90;65.20;;;;;;5055014;28;20185;-69
2022/10/04 05:37:37;;;;;;;1.50;1.40;;;17.00;65.20;;;;;;5053980;28;20171;-69
2022/10/04 05:40:34;;;;;;;1.73;1.30;;;16.90;65.20;;;;;;5054341;28;20175;-69
2022/10/04 05:43:00;;;;;;;1.90;1.35;;;16.90;65.20;;;;;;5039919;28;20274;-70
2022/10/04 05:45:27;;;;;;;1.77;1.38;;;16.90;65.30;;;;;;5053965;28;20354;-69
2022/10/04 05:47:53;;;;;;;1.83;1.73;;;16.90;65.30;;;;;;5053881;28;20223;-69
2022/10/04 05:50:30;;;;;;;1.63;1.40;;;16.90;65.20;;;;;;5053511;28;20210;-68
2022/10/04 05:53:16;;;;;;;2.22;1.30;;;16.90;65.20;;;;;;5037373;28;20716;-69
2022/10/04 05:56:06;;;;;;;1.75;1.55;;;16.90;65.20;;;;;;5053797;28;20186;-69
2022/10/04 05:58:37;;;;;;;2.38;1.55;;;16.90;65.20;;;;;;5054979;28;20185;-69
2022/10/04 06:01:12;;;;;;;1.75;1.58;;;16.90;65.20;;;;;;5052641;28;20177;-69
2022/10/04 06:04:05;;;;;;;2.10;1.40;;;16.90;65.20;;;;;;5054524;28;20178;-69
2022/10/04 06:06:37;;;;;;;1.63;1.38;;;16.90;65.20;;;;;;5054464;28;20292;-69
2022/10/04 06:09:18;;;;;;;2.28;1.38;;;16.90;65.20;;;;;;5052647;28;20324;-69
2022/10/04 06:12:13;;;;;;;1.77;1.60;;;16.90;65.20;;;;;;5053467;28;20171;-69
2022/10/04 06:15:02;;;;;;;1.65;1.55;;;16.90;65.20;;;;;;5049300;28;20202;-70
2022/10/04 06:17:31;;;;;;;1.42;1.33;;;16.90;65.20;;;;;;5052777;28;20175;-70
2022/10/04 06:19:59;;;;;;;2.50;1.45;;;16.90;65.20;;;;;;5052384;28;20171;-70
2022/10/04 06:22:27;;;;;;;1.52;1.42;;;16.90;65.20;;;;;;5053351;28;20179;-70
2022/10/04 06:24:59;;;;;;;2.78;1.77;;;16.90;65.20;;;;;;5054318;28;20540;-70
2022/10/04 06:27:48;;;;;;;1.65;1.55;;;16.90;65.10;;;;;;5052916;28;20598;-69
2022/10/04 06:30:15;;;;;;;3.08;1.58;;;16.90;65.10;;;;;;5052138;28;20175;-69
2022/10/04 06:33:29;;;;;;;2.00;1.52;;;16.90;65.10;;;;;;5052986;28;20179;-69
2022/10/04 06:36:06;;;;;;;1.55;1.45;;;16.90;65.10;;;;;;5033618;28;20287;-68
2022/10/04 06:38:54;;;;;;;1.60;1.50;;;16.90;65.10;;;;;;5054391;28;20556;-69
2022/10/04 06:41:38;;;;;;;1.42;1.27;;;16.90;65.00;;;;;;5052547;28;20179;-69
2022/10/04 06:44:27;;;;;;;2.08;1.40;;;17.00;65.10;;;;;;5052860;28;20168;-70
2022/10/04 06:47:14;;;;;;;2.88;1.80;;;17.10;65.00;;;;;;5052409;28;20203;-70
2022/10/04 06:49:51;;;;;;;1.92;1.65;;;17.20;65.00;;;;;;5053064;28;20186;-70
2022/10/04 06:52:27;;;;;;;1.48;1.38;;;17.20;64.90;;;;;;5036741;28;20181;-70
2022/10/04 06:55:39;;;;;;;2.28;1.45;;;17.20;64.70;;;;;;5052461;28;20274;-65
2022/10/04 06:58:28;;;;;;;5.50;1.80;;;17.20;64.80;;;;;;5019182;28;20238;-67
2022/10/04 07:01:02;;;;;;;4.10;1.85;;;17.30;65.00;;;;;;5000613;28;20233;-68
2022/10/04 07:03:38;;;;;;;4.18;1.70;;;17.30;64.90;;;;;;5038798;28;20237;-68
2022/10/04 07:06:04;;;;;;;2.03;1.60;;;17.20;64.80;;;;;;5051949;28;20199;-67
2022/10/04 07:08:38;;;;;;;3.58;1.60;;;17.20;64.70;;;;;;5053597;28;20175;-67
2022/10/04 07:11:12;;;;;;;2.15;1.60;;;17.20;64.70;;;;;;5051313;28;20179;-67
2022/10/04 07:13:49;;;;;;;4.95;1.83;;;17.20;64.90;;;;;;5053096;28;20244;-68
2022/10/04 07:16:15;;;;;;;2.72;1.98;;;17.20;64.90;;;;;;5053205;28;20241;-68
2022/10/04 07:18:56;;;;;;;2.80;1.73;;;17.10;64.90;;;;;;5052542;28;20171;-68
2022/10/04 07:21:24;;;;;;;3.35;2.00;;;17.10;64.90;;;;;;5051955;28;20178;-68
2022/10/04 07:24:00;;;;;;;3.70;1.88;;;17.10;65.20;;;;;;5035906;28;20258;-67
2022/10/04 07:26:28;;;;;;;6.45;2.10;;;17.10;66.40;;;;;;5051398;28;20284;-67
2022/10/04 07:31:40;;;;;;;2.42;1.73;;;17.20;65.70;;;;;;5052306;28;20309;-67
2022/10/04 07:34:25;;;;;;;2.88;2.15;;;17.20;65.80;;;;;;5051544;28;20262;-66
2022/10/04 07:36:58;;;;;;;5.00;1.98;;;17.20;65.70;;;;;;5051799;28;20710;-67
2022/10/04 07:39:32;;;;;;;2.75;1.70;;;17.20;65.70;;;;;;5034818;28;20182;-67
2022/10/04 07:42:06;;;;;;;2.28;1.67;;;17.20;65.60;;;;;;5052663;28;20181;-67
2022/10/04 07:44:36;;;;;;;3.70;1.83;;;17.20;65.30;;;;;;5051933;28;20183;-67
2022/10/04 07:47:17;;;;;;;1.95;1.70;;;17.30;65.20;;;;;;5051929;28;20210;-67
2022/10/04 07:49:42;;;;;;;2.33;1.92;;;17.30;65.00;;;;;;5052039;28;20183;-67
2022/10/04 07:52:24;;;;;;;3.47;2.17;;;17.40;65.00;;;;;;5052579;28;20205;-67
2022/10/04 07:54:51;;;;;;;3.83;1.98;;;17.30;64.70;;;;;;5050764;28;20182;-67
2022/10/04 07:57:27;;;;;;;3.30;2.38;;;17.40;64.70;;;;;;5051353;28;20190;-67
2022/10/04 08:00:27;;;;;;;3.83;2.35;;;17.40;64.60;;;;;;5050946;28;20282;-67
2022/10/04 08:03:15;;;;;;;4.10;2.03;;;17.50;64.40;;;;;;5044451;28;20190;-67
2022/10/04 08:05:42;;;;;;;2.10;1.95;;;17.50;64.30;;;;;;5052679;28;20179;-67
2022/10/04 08:08:37;;;;;;;4.38;2.10;;;17.50;64.40;;;;;;5034296;28;20187;-66
2022/10/04 08:11:16;;;;;;;2.50;1.80;;;17.50;64.50;;;;;;5051256;28;20272;-66
2022/10/04 08:13:52;;;;;;;2.30;2.08;;;17.50;64.70;;;;;;5050471;28;20257;-67
2022/10/04 08:16:50;;;;;;;2.17;1.90;;;17.60;64.50;;;;;;5051413;28;20179;-68
2022/10/04 08:19:34;;;;;;;2.55;2.10;;;17.60;64.40;;;;;;5051041;28;20211;-67
2022/10/04 08:22:19;;;;;;;4.28;2.20;;;17.60;64.40;;;;;;5050405;28;20182;-67
2022/10/04 08:24:53;;;;;;;1.88;1.77;;;17.70;64.40;;;;;;5036807;28;20661;-67
2022/10/04 08:27:39;;;;;;;4.30;2.08;;;17.70;64.40;;;;;;5051097;28;20218;-67
2022/10/04 08:30:25;;;;;;;2.83;2.38;;;17.80;64.40;;;;;;5052053;28;20179;-67
2022/10/04 08:33:00;;;;;;;3.17;2.03;;;17.80;64.40;;;;;;5052443;28;20179;-66
2022/10/04 08:35:58;;;;;;;4.45;2.25;;;17.80;64.40;;;;;;5050586;28;20691;-65
2022/10/04 08:38:26;;;;;;;2.47;2.25;;;17.90;64.40;;;;;;5047127;28;20244;-72
2022/10/04 08:41:07;;;;;;;4.10;2.17;;;17.90;64.40;;;;;;5051062;28;20530;-71
2022/10/04 08:44:12;;;;;;;4.38;1.92;;;18.00;64.40;;;;;;5054246;28;20656;-73
2022/10/04 08:47:02;;;;;;;2.63;1.88;;;18.00;64.30;;;;;;5055081;28;20215;-71
2022/10/04 08:50:05;;;;;;;3.53;1.80;;;18.10;64.20;;;;;;5055597;28;20175;-71
2022/10/04 08:53:01;;;;;;;2.90;2.08;;;18.10;64.20;;;;;;5055886;28;20301;-72
2022/10/04 08:55:45;;;;;;;4.63;2.10;;;18.20;64.20;;;;;;5034839;28;20187;-72
2022/10/04 08:58:34;;;;;;;2.17;1.98;;;18.20;64.20;;;;;;5055015;28;20170;-73
2022/10/04 09:01:37;;;;;;;2.47;2.28;;;18.20;64.20;;;;;;5054201;28;20179;-72
2022/10/04 09:04:12;;;;;;;3.33;1.80;;;18.30;64.10;;;;;;5054597;28;20700;-66
2022/10/04 09:06:53;;;;;;;4.70;2.58;;;18.30;64.20;;;;;;5054498;28;20283;-65
2022/10/04 09:09:43;;;;;;;3.97;1.77;;;18.30;64.30;;;;;;5055293;28;20163;-65
2022/10/04 09:12:33;;;;;;;4.00;1.75;;;18.30;64.30;;;;;;5054386;28;20232;-65
2022/10/04 09:15:15;;;;;;;2.33;2.13;;;18.30;64.40;;;;;;5055480;28;20175;-64
2022/10/04 09:17:54;;;;;;;2.70;1.80;;;18.30;64.50;;;;;;5053968;28;20186;-64
2022/10/04 09:20:23;;;;;;;6.15;2.13;;;18.40;64.60;;;;;;5055078;28;20553;-64
2022/10/04 09:23:11;;;;;;;4.43;2.40;;;18.30;64.50;;;;;;5055599;28;20514;-69
2022/10/04 09:25:47;;;;;;;4.38;2.85;;;18.50;64.40;;;;;;5053914;28;20248;-69
2022/10/04 09:28:37;;;;;;;9.18;3.15;;;19.00;63.40;;;;;;5054072;28;20596;-72
2022/10/04 09:31:20;;;;;;;9.32;3.80;;;19.30;62.30;;;;;;5054586;28;20207;-68
2022/10/04 09:33:59;;;;;;;8.27;3.55;;;19.40;61.80;;;;;;5055478;28;20183;-70
2022/10/04 09:36:39;;;;;;;10.93;4.30;;;19.50;61.70;;;;;;5039034;28;20175;-74
2022/10/04 09:39:38;;;;;;;6.00;3.63;;;19.60;61.70;;;;;;5054009;28;20179;-72
2022/10/04 09:42:35;;;;;;;7.85;3.65;;;19.70;60.80;;;;;;5054811;28;20247;-72
2022/10/04 09:45:22;;;;;;;6.20;3.38;;;19.40;61.80;;;;;;5054607;28;20629;-72
2022/10/04 09:47:59;;;;;;;9.98;3.67;;;19.20;62.70;;;;;;5054902;28;20573;-71
2022/10/04 09:50:40;;;;;;;4.25;3.15;;;19.00;63.20;;;;;;5053941;28;20179;-72
2022/10/04 09:53:24;;;;;;;6.57;3.38;;;18.90;63.50;;;;;;5052576;28;20588;-71
2022/10/04 09:55:58;;;;;;;6.57;3.30;;;18.90;63.80;;;;;;5054819;28;20185;-69
2022/10/04 09:58:44;;;;;;;4.18;3.17;;;18.90;64.00;;;;;;5054984;28;20175;-69
2022/10/04 10:01:21;;;;;;;7.47;3.10;;;18.80;64.00;;;;;;5038032;28;20174;-69
2022/10/04 10:03:56;;;;;;;5.65;3.00;;;18.90;64.20;;;;;;5054649;28;20257;-70
2022/10/04 10:06:33;;;;;;;5.60;3.40;;;18.90;64.10;;;;;;5053420;28;20570;-68
2022/10/04 10:09:17;;;;;;;9.10;2.88;;;18.90;64.10;;;;;;5054507;28;20175;-71
2022/10/04 10:15:31;;;;;;;6.30;3.25;;;18.90;64.00;;;;;;5052848;28;20282;-73
2022/10/04 10:18:22;;;;;;;6.15;3.15;;;18.90;64.00;;;;;;5053737;28;20194;-72
2022/10/04 10:21:09;;;;;;;5.13;3.17;;;18.90;64.00;;;;;;5052047;28;20184;-73
2022/10/04 10:23:44;;;;;;;6.55;3.38;;;18.90;64.00;;;;;;5053165;28;20604;-72
2022/10/04 10:26:35;;;;;;;5.90;3.40;;;18.90;63.90;;;;;;5037184;28;20225;-72
2022/10/04 10:29:23;;;;;;;5.20;2.65;;;18.90;63.90;;;;;;5051823;28;20187;-71
2022/10/04 10:32:25;;;;;;;6.10;2.80;;;18.90;63.80;;;;;;5054288;28;20179;-70
2022/10/04 10:35:23;;;;;;;4.97;3.20;;;18.90;63.70;;;;;;5052255;28;20174;-67
2022/10/04 10:38:07;;;;;;;4.20;2.97;;;18.90;63.60;;;;;;5054784;28;20649;-66
2022/10/04 10:40:40;;;;;;;5.00;2.88;;;18.90;63.60;;;;;;5053732;28;20182;-67
2022/10/04 10:43:19;;;;;;;5.60;2.95;;;19.00;63.50;;;;;;5051417;28;20183;-68
2022/10/04 10:46:04;;;;;;;4.38;2.63;;;18.90;63.40;;;;;;5053639;28;20525;-67
2022/10/04 10:48:56;;;;;;;5.95;3.25;;;19.00;63.50;;;;;;5052850;28;20206;-68
2022/10/04 10:51:29;;;;;;;3.83;2.80;;;19.00;63.50;;;;;;5051138;28;20188;-67
2022/10/04 10:54:29;;;;;;;5.10;3.20;;;19.00;63.60;;;;;;5053628;28;20183;-67
2022/10/04 10:57:19;;;;;;;6.57;3.42;;;19.00;63.50;;;;;;5052986;28;20652;-67
2022/10/04 10:59:50;;;;;;;5.22;3.05;;;19.10;63.50;;;;;;5036731;28;20186;-68
2022/10/04 11:02:21;;;;;;;4.47;2.95;;;19.10;63.50;;;;;;5053308;28;20547;-67
2022/10/04 11:05:24;;;;;;;3.55;2.80;;;19.10;63.40;;;;;;5052603;28;20175;-67
2022/10/04 11:07:54;;;;;;;3.13;2.65;;;19.10;63.40;;;;;;5053491;28;20202;-65
2022/10/04 11:10:47;;;;;;;5.50;2.45;;;19.10;63.30;;;;;;5034775;28;20189;-66
2022/10/04 11:13:44;;;;;;;4.32;2.95;;;19.20;63.30;;;;;;5052847;28;20268;-65
2022/10/04 11:16:33;;;;;;;7.18;3.63;;;19.20;63.30;;;;;;5052191;28;20171;-67
2022/10/04 11:19:40;;;;;;;4.75;3.00;;;19.20;63.30;;;;;;5051895;28;20258;-68
2022/10/04 11:22:33;;;;;;;4.28;3.10;;;19.20;63.20;;;;;;5051809;28;20186;-68
2022/10/04 11:25:24;;;;;;;6.20;3.03;;;19.20;63.20;;;;;;5052176;28;20543;-68
2022/10/04 11:28:27;;;;;;;6.05;2.97;;;19.20;63.20;;;;;;5053152;28;20225;-67
2022/10/04 11:31:01;;;;;;;2.92;2.63;;;19.20;63.20;;;;;;5051915;28;20178;-66
2022/10/04 11:34:04;;;;;;;5.50;2.53;;;19.20;63.20;;;;;;5053030;28;20181;-66
2022/10/04 11:36:42;;;;;;;4.28;2.85;;;19.20;63.10;;;;;;5053194;28;20257;-67
2022/10/04 11:39:22;;;;;;;4.65;2.80;;;19.20;63.10;;;;;;5050834;28;20636;-67
2022/10/04 11:42:18;;;;;;;4.32;2.88;;;19.20;63.10;;;;;;5052849;28;20183;-67
2022/10/04 11:44:58;;;;;;;9.38;3.15;;;19.20;63.10;;;;;;5049739;28;20268;-68
2022/10/04 11:48:25;;;;;;;5.00;2.80;;;19.20;63.00;;;;;;5051782;28;20297;-67
2022/10/04 11:51:25;;;;;;;6.47;2.80;;;19.20;62.90;;;;;;5000986;28;20219;-67
2022/10/04 11:54:02;;;;;;;3.45;2.70;;;19.20;62.90;;;;;;5051050;28;20190;-67
2022/10/04 11:56:41;;;;;;;4.32;2.83;;;19.20;62.90;;;;;;5052764;28;20273;-67
2022/10/04 11:59:31;;;;;;;7.18;3.20;;;19.20;62.90;;;;;;5035898;28;20218;-68
2022/10/04 12:02:08;;;;;;;4.00;2.42;;;19.20;62.90;;;;;;5052706;28;20189;-67
2022/10/04 12:05:10;;;;;;;4.00;2.63;;;19.20;62.90;;;;;;5052761;28;20253;-67
2022/10/04 12:08:01;;;;;;;5.82;2.78;;;19.20;62.90;;;;;;5051114;28;20226;-66
2022/10/04 12:10:33;;;;;;;4.13;2.63;;;19.20;62.90;;;;;;5052839;28;20211;-67
2022/10/04 12:13:15;;;;;;;2.50;2.25;;;19.20;62.80;;;;;;5051396;28;20743;-67
2022/10/04 12:16:03;;;;;;;4.13;2.38;;;19.20;62.90;;;;;;5051634;28;20174;-67
2022/10/04 12:18:56;;;;;;;3.70;2.55;;;19.20;62.80;;;;;;5056879;28;20205;-67
2022/10/04 12:21:43;;;;;;;2.80;2.60;;;19.20;62.80;;;;;;5040744;28;20692;-67
2022/10/04 12:24:35;;;;;;;4.05;2.67;;;19.20;62.90;;;;;;5055434;28;20178;-67
2022/10/04 12:27:37;;;;;;;3.97;2.80;;;19.20;63.00;;;;;;5054538;28;20241;-67
2022/10/04 12:30:19;;;;;;;4.45;2.70;;;19.10;63.10;;;;;;5054921;28;20718;-67
2022/10/04 12:33:07;;;;;;;2.85;2.45;;;19.10;62.90;;;;;;5039983;28;20171;-66
2022/10/04 12:35:39;;;;;;;2.95;2.60;;;19.10;63.10;;;;;;5055584;28;20183;-66
2022/10/04 12:38:23;;;;;;;3.55;2.63;;;19.00;63.00;;;;;;5056187;28;20625;-67
2022/10/04 12:41:16;;;;;;;4.75;2.20;;;19.00;63.20;;;;;;5056489;28;20179;-67
2022/10/04 12:43:56;;;;;;;3.78;2.63;;;19.00;63.20;;;;;;5056244;28;20625;-68
2022/10/04 12:46:37;;;;;;;3.38;2.47;;;19.10;62.90;;;;;;5056305;28;20248;-67
2022/10/04 12:49:03;;;;;;;3.65;2.67;;;19.20;62.60;;;;;;5055387;28;20181;-67
2022/10/04 12:51:56;;;;;;;3.47;2.30;;;19.20;62.50;;;;;;5055976;28;20167;-67
2022/10/04 12:54:41;;;;;;;3.15;2.35;;;19.20;62.50;;;;;;5056033;28;20186;-67
2022/10/04 12:57:25;;;;;;;6.00;2.90;;;19.20;62.50;;;;;;5053626;28;20618;-67
2022/10/04 13:00:14;;;;;;;4.13;2.80;;;19.20;62.60;;;;;;5056150;28;20171;-67
2022/10/04 13:03:17;;;;;;;2.42;2.22;;;19.20;62.40;;;;;;5055236;28;20701;-67
2022/10/04 13:05:46;;;;;;;2.38;2.15;;;19.10;62.60;;;;;;5056038;28;20179;-67
2022/10/04 13:08:23;;;;;;;4.13;2.53;;;19.10;62.80;;;;;;5055520;28;20302;-66
2022/10/04 13:11:08;;;;;;;2.97;2.10;;;19.10;62.90;;;;;;5055093;28;20171;-67
2022/10/04 13:13:53;;;;;;;3.28;2.30;;;19.00;62.80;;;;;;5054244;28;20292;-67
2022/10/04 13:16:49;;;;;;;2.70;2.40;;;19.00;62.90;;;;;;5053607;28;20221;-68
2022/10/04 13:19:36;;;;;;;3.47;2.40;;;19.10;62.90;;;;;;5039473;28;20676;-67
2022/10/04 13:22:25;;;;;;;3.13;2.00;;;19.20;62.40;;;;;;5053888;28;20536;-67
2022/10/04 13:25:00;;;;;;;4.20;2.20;;;19.40;62.20;;;;;;5054847;28;20186;-67
2022/10/04 13:27:54;;;;;;;3.30;2.13;;;19.50;61.80;;;;;;5053912;28;20215;-66
2022/10/04 13:30:23;;;;;;;2.83;2.30;;;19.60;61.60;;;;;;5054569;28;20182;-66
2022/10/04 13:33:13;;;;;;;2.45;2.25;;;19.70;61.40;;;;;;5055473;28;20186;-65
2022/10/04 13:35:46;;;;;;;2.88;2.20;;;19.70;61.20;;;;;;5055277;28;20171;-66
2022/10/04 13:38:33;;;;;;;3.05;2.15;;;19.80;61.10;;;;;;5053128;28;20214;-66
2022/10/04 13:41:30;;;;;;;3.00;2.42;;;19.80;60.90;;;;;;5054116;28;20242;-66
2022/10/04 13:44:21;;;;;;;3.42;2.45;;;19.90;60.70;;;;;;5050663;28;20179;-67
2022/10/04 13:47:06;;;;;;;3.42;2.90;;;19.90;60.50;;;;;;5054958;28;20264;-66
2022/10/04 13:49:53;;;;;;;2.97;2.67;;;20.00;60.50;;;;;;5054122;28;20329;-67
2022/10/04 13:58:10;;;;;;;2.42;2.22;;;19.90;60.60;;;;;;5054651;28;20537;-67
2022/10/04 14:00:57;;;;;;;3.88;2.40;;;19.80;60.60;;;;;;5054162;28;20175;-67
2022/10/04 14:03:37;;;;;;;3.58;2.60;;;19.80;60.70;;;;;;5054753;28;20183;-67